createdAt,value
2019-02-19T00:01:34.294Z,0.70
2019-02-19T00:04:03.037Z,0.60
2019-02-19T00:06:31.742Z,0.60
2019-02-19T00:09:00.413Z,0.50
2019-02-19T00:11:28.978Z,0.50
2019-02-19T00:13:57.719Z,0.50
2019-02-19T00:16:26.348Z,0.50
2019-02-19T00:18:55.011Z,0.40
2019-02-19T00:21:23.717Z,0.40
2019-02-19T00:23:52.394Z,0.40
2019-02-19T00:26:20.950Z,0.40
2019-02-19T00:28:49.558Z,0.40
2019-02-19T00:31:18.267Z,0.40
2019-02-19T00:33:46.934Z,0.30
2019-02-19T00:36:15.563Z,0.30
2019-02-19T00:38:44.230Z,0.30
2019-02-19T00:41:12.858Z,0.20
2019-02-19T00:43:41.608Z,0.20
2019-02-19T00:46:10.169Z,0.10
2019-02-19T00:48:38.910Z,0.10
2019-02-19T00:51:07.615Z,0.10
2019-02-19T00:53:36.214Z,0.10
2019-02-19T00:56:04.915Z,0.20
2019-02-19T00:58:33.587Z,0.20
2019-02-19T01:01:02.221Z,0.30
2019-02-19T01:03:30.962Z,0.40
2019-02-19T01:05:59.662Z,0.40
2019-02-19T01:08:28.338Z,0.40
2019-02-19T01:10:57.042Z,0.40
2019-02-19T01:13:25.716Z,0.30
2019-02-19T01:15:54.811Z,0.30
2019-02-19T01:18:23.447Z,0.20
2019-02-19T01:20:52.046Z,0.20
2019-02-19T01:23:20.755Z,0.20
2019-02-19T01:25:49.431Z,0.20
2019-02-19T01:28:18.073Z,0.20
2019-02-19T01:30:46.820Z,0.20
2019-02-19T01:33:15.518Z,0.10
2019-02-19T01:35:44.187Z,0.10
2019-02-19T01:38:12.984Z,0.10
2019-02-19T01:40:41.652Z,0.00
2019-02-19T01:43:10.350Z,0.00
2019-02-19T01:45:39.098Z,-0.10
2019-02-19T01:48:07.810Z,-0.10
2019-02-19T01:50:36.622Z,-0.10
2019-02-19T01:53:06.857Z,-0.20
2019-02-19T01:55:35.558Z,-0.10
2019-02-19T01:58:04.311Z,-0.10
2019-02-19T02:00:32.990Z,-0.10
2019-02-19T02:03:01.643Z,-0.10
2019-02-19T02:05:30.298Z,-0.10
2019-02-19T02:07:58.958Z,-0.10
2019-02-19T02:10:27.606Z,-0.20
2019-02-19T02:12:56.319Z,-0.20
2019-02-19T02:15:25.062Z,-0.20
2019-02-19T02:17:53.628Z,-0.20
2019-02-19T02:20:22.347Z,-0.20
2019-02-19T02:22:50.970Z,-0.20
2019-02-19T02:25:19.610Z,-0.20
2019-02-19T02:27:48.351Z,-0.20
2019-02-19T02:30:17.064Z,-0.20
2019-02-19T02:32:45.730Z,-0.20
2019-02-19T02:35:14.355Z,-0.30
2019-02-19T02:37:43.013Z,-0.30
2019-02-19T02:40:11.711Z,-0.30
2019-02-19T02:42:40.451Z,-0.30
2019-02-19T02:45:09.159Z,-0.30
2019-02-19T02:47:37.795Z,-0.30
2019-02-19T02:50:06.538Z,-0.30
2019-02-19T02:52:35.103Z,-0.30
2019-02-19T02:55:04.451Z,-0.30
2019-02-19T02:57:33.094Z,-0.20
2019-02-19T03:00:01.832Z,-0.20
2019-02-19T03:02:30.540Z,-0.20
2019-02-19T03:04:59.205Z,-0.20
2019-02-19T03:07:29.554Z,-0.20
2019-02-19T03:09:58.145Z,-0.20
2019-02-19T03:12:26.878Z,-0.20
2019-02-19T03:14:55.519Z,-0.20
2019-02-19T03:17:24.117Z,-0.20
2019-02-19T03:19:52.759Z,-0.20
2019-02-19T03:22:21.516Z,-0.20
2019-02-19T03:24:50.219Z,-0.10
2019-02-19T03:27:18.895Z,-0.10
2019-02-19T03:29:47.454Z,-0.10
2019-02-19T03:32:16.092Z,0.00
2019-02-19T03:34:44.760Z,0.00
2019-02-19T03:37:13.332Z,0.00
2019-02-19T03:39:42.007Z,-0.10
2019-02-19T03:42:10.734Z,-0.10
2019-02-19T03:44:39.303Z,-0.10
2019-02-19T03:47:07.939Z,-0.10
2019-02-19T03:49:36.624Z,-0.10
2019-02-19T03:52:05.359Z,-0.10
2019-02-19T03:54:34.059Z,0.00
2019-02-19T03:57:02.776Z,0.00
2019-02-19T03:59:31.518Z,0.00
2019-02-19T04:02:00.258Z,0.00
2019-02-19T04:04:29.162Z,0.00
2019-02-19T04:06:57.873Z,0.00
2019-02-19T04:09:26.618Z,0.00
2019-02-19T04:11:55.167Z,0.10
2019-02-19T04:14:23.834Z,0.00
2019-02-19T04:16:52.543Z,0.00
2019-02-19T04:19:21.280Z,0.00
2019-02-19T04:21:49.984Z,0.00
2019-02-19T04:24:18.652Z,-0.10
2019-02-19T04:26:47.289Z,-0.10
2019-02-19T04:29:16.015Z,-0.10
2019-02-19T04:31:44.587Z,-0.20
2019-02-19T04:34:13.175Z,-0.20
2019-02-19T04:36:41.751Z,-0.20
2019-02-19T04:39:10.412Z,-0.30
2019-02-19T04:41:39.649Z,-0.20
2019-02-19T04:44:08.330Z,-0.20
2019-02-19T04:46:36.924Z,-0.30
2019-02-19T04:49:05.597Z,-0.30
2019-02-19T04:51:34.279Z,-0.30
2019-02-19T04:54:02.955Z,-0.40
2019-02-19T04:56:31.587Z,-0.40
2019-02-19T04:59:09.694Z,-0.40
2019-02-19T05:01:46.533Z,-0.40
2019-02-19T05:04:15.269Z,-0.40
2019-02-19T05:06:43.911Z,-0.10
2019-02-19T05:09:13.238Z,0.30
2019-02-19T05:11:41.972Z,0.80
2019-02-19T05:14:10.536Z,1.20
2019-02-19T05:16:40.925Z,1.60
2019-02-19T05:19:09.434Z,1.90
2019-02-19T05:21:38.027Z,2.20
2019-02-19T05:24:06.661Z,2.00
2019-02-19T05:26:35.259Z,1.80
2019-02-19T05:29:03.889Z,1.50
2019-02-19T05:31:32.486Z,1.30
2019-02-19T05:34:01.135Z,1.00
2019-02-19T05:36:29.806Z,0.80
2019-02-19T05:38:58.446Z,0.70
2019-02-19T05:41:27.051Z,0.50
2019-02-19T05:43:55.598Z,0.40
2019-02-19T05:46:24.268Z,0.30
2019-02-19T05:48:52.830Z,0.20
2019-02-19T05:51:21.435Z,0.20
2019-02-19T05:53:50.125Z,0.20
2019-02-19T05:56:18.831Z,0.30
2019-02-19T05:58:47.574Z,0.50
2019-02-19T06:01:16.134Z,0.90
2019-02-19T06:03:44.878Z,1.30
2019-02-19T06:06:13.384Z,1.50
2019-02-19T06:08:41.981Z,1.30
2019-02-19T06:11:10.618Z,1.10
2019-02-19T06:13:39.219Z,1.00
2019-02-19T06:16:07.862Z,0.80
2019-02-19T06:18:36.523Z,0.70
2019-02-19T06:21:05.225Z,0.60
2019-02-19T06:23:33.897Z,0.50
2019-02-19T06:26:02.606Z,0.50
2019-02-19T06:28:31.161Z,0.40
2019-02-19T06:30:59.898Z,0.30
2019-02-19T06:33:28.462Z,0.20
2019-02-19T06:35:57.199Z,0.30
2019-02-19T06:38:25.902Z,0.40
2019-02-19T06:40:54.575Z,0.50
2019-02-19T06:43:23.274Z,0.50
2019-02-19T06:45:51.941Z,0.60
2019-02-19T06:48:20.510Z,0.60
2019-02-19T06:50:49.235Z,0.60
2019-02-19T06:53:17.816Z,0.60
2019-02-19T06:55:46.485Z,0.70
2019-02-19T06:58:15.132Z,0.90
2019-02-19T07:00:44.603Z,1.00
2019-02-19T07:03:17.459Z,1.10
2019-02-19T07:05:46.153Z,1.20
2019-02-19T07:08:15.158Z,1.30
2019-02-19T07:10:43.826Z,1.30
2019-02-19T07:13:12.557Z,1.30
2019-02-19T07:15:41.362Z,1.40
2019-02-19T07:18:10.007Z,1.40
2019-02-19T07:20:38.673Z,1.50
2019-02-19T07:23:07.315Z,1.60
2019-02-19T07:25:35.986Z,1.70
2019-02-19T07:28:04.793Z,1.90
2019-02-19T07:30:33.430Z,1.90
2019-02-19T07:33:02.175Z,1.90
2019-02-19T07:35:30.911Z,1.90
2019-02-19T07:37:59.573Z,2.10
2019-02-19T07:40:28.210Z,2.40
2019-02-19T07:42:56.961Z,2.80
2019-02-19T07:45:25.795Z,3.30
2019-02-19T07:47:54.530Z,3.80
2019-02-19T07:50:23.127Z,4.20
2019-02-19T07:52:51.712Z,4.50
2019-02-19T07:55:20.448Z,4.70
2019-02-19T07:57:49.078Z,4.90
2019-02-19T08:00:17.739Z,5.20
2019-02-19T08:02:46.469Z,5.40
2019-02-19T08:05:15.141Z,5.70
2019-02-19T08:07:43.696Z,6.00
2019-02-19T08:10:12.835Z,6.20
2019-02-19T08:12:41.454Z,6.50
2019-02-19T08:15:11.609Z,6.70
2019-02-19T08:17:40.174Z,6.80
2019-02-19T08:20:15.964Z,7.10
2019-02-19T08:22:40.402Z,7.30
2019-02-19T08:25:09.139Z,7.60
2019-02-19T08:27:37.710Z,7.70
2019-02-19T08:30:11.081Z,7.70
2019-02-19T08:32:39.527Z,7.80
2019-02-19T08:35:08.263Z,7.70
2019-02-19T08:37:36.975Z,7.80
2019-02-19T08:40:07.886Z,8.00
2019-02-19T08:42:36.599Z,8.40
2019-02-19T08:45:07.435Z,8.60
2019-02-19T08:47:42.264Z,8.80
2019-02-19T08:50:07.883Z,8.80
2019-02-19T08:52:36.518Z,8.70
2019-02-19T08:55:06.415Z,8.60
2019-02-19T08:57:35.025Z,8.50
2019-02-19T09:00:05.231Z,8.40
2019-02-19T09:02:33.899Z,8.50
2019-02-19T09:05:02.430Z,9.00
2019-02-19T09:07:31.087Z,9.80
2019-02-19T09:09:59.671Z,10.40
2019-02-19T09:12:28.417Z,10.60
2019-02-19T09:14:57.062Z,10.40
2019-02-19T09:17:25.808Z,10.00
2019-02-19T09:19:54.367Z,9.60
2019-02-19T09:22:22.999Z,9.40
2019-02-19T09:24:51.596Z,9.30
2019-02-19T09:27:20.297Z,9.20
2019-02-19T09:29:48.896Z,9.00
2019-02-19T09:32:17.451Z,8.90
2019-02-19T09:34:46.111Z,8.80
2019-02-19T09:37:14.752Z,8.70
2019-02-19T09:39:43.419Z,8.80
2019-02-19T09:42:12.124Z,9.20
2019-02-19T09:44:40.859Z,9.50
2019-02-19T09:47:09.537Z,9.70
2019-02-19T09:49:38.263Z,9.60
2019-02-19T09:52:06.898Z,9.70
2019-02-19T09:54:35.554Z,9.60
2019-02-19T09:57:04.304Z,9.60
2019-02-19T09:59:33.000Z,9.70
2019-02-19T10:02:01.596Z,9.70
2019-02-19T10:04:30.226Z,9.80
2019-02-19T10:06:58.892Z,9.90
2019-02-19T10:09:27.605Z,9.90
2019-02-19T10:11:56.339Z,9.90
2019-02-19T10:14:24.904Z,10.00
2019-02-19T10:16:53.580Z,9.60
2019-02-19T10:19:22.143Z,9.00
2019-02-19T10:21:50.888Z,8.60
2019-02-19T10:24:19.529Z,8.30
2019-02-19T10:26:49.651Z,8.20
2019-02-19T10:29:18.506Z,8.30
2019-02-19T10:31:47.247Z,8.40
2019-02-19T10:34:15.805Z,8.60
2019-02-19T10:36:44.518Z,8.80
2019-02-19T10:39:13.254Z,9.10
2019-02-19T10:41:41.971Z,9.60
2019-02-19T10:44:19.718Z,10.30
2019-02-19T10:46:48.435Z,11.70
2019-02-19T10:49:17.108Z,13.10
2019-02-19T10:51:45.855Z,14.30
2019-02-19T10:54:15.504Z,15.00
2019-02-19T10:56:44.212Z,15.00
2019-02-19T10:59:12.890Z,15.00
2019-02-19T11:01:41.597Z,14.70
2019-02-19T11:04:10.339Z,14.10
2019-02-19T11:06:39.156Z,13.50
2019-02-19T11:09:07.719Z,12.80
2019-02-19T11:11:36.388Z,12.00
2019-02-19T11:14:05.099Z,11.30
2019-02-19T11:16:33.766Z,10.50
2019-02-19T11:19:02.483Z,10.10
2019-02-19T11:21:31.222Z,9.90
2019-02-19T11:23:59.852Z,9.60
2019-02-19T11:26:28.575Z,9.30
2019-02-19T11:28:57.209Z,9.00
2019-02-19T11:31:25.943Z,8.80
2019-02-19T11:33:54.571Z,8.70
2019-02-19T11:36:26.215Z,8.60
2019-02-19T11:38:54.851Z,8.60
2019-02-19T11:41:23.522Z,8.60
2019-02-19T11:43:52.151Z,8.60
2019-02-19T11:46:20.863Z,8.60
2019-02-19T11:48:49.520Z,8.60
2019-02-19T11:51:18.227Z,8.60
2019-02-19T11:53:46.892Z,8.60
2019-02-19T11:56:15.596Z,8.60
2019-02-19T11:58:44.339Z,8.70
2019-02-19T12:01:13.108Z,8.70
2019-02-19T12:03:41.780Z,8.80
2019-02-19T12:06:10.490Z,8.90
2019-02-19T12:08:39.512Z,8.80
2019-02-19T12:11:08.371Z,8.90
2019-02-19T12:13:37.001Z,8.90
2019-02-19T12:16:05.743Z,8.90
2019-02-19T12:18:34.370Z,8.90
2019-02-19T12:21:03.115Z,8.90
2019-02-19T12:23:31.743Z,9.00
2019-02-19T12:26:00.413Z,9.00
2019-02-19T12:28:29.037Z,9.00
2019-02-19T12:30:57.739Z,9.00
2019-02-19T12:33:26.405Z,8.90
2019-02-19T12:35:55.039Z,8.80
2019-02-19T12:38:23.791Z,8.70
2019-02-19T12:40:53.261Z,8.70
2019-02-19T12:43:22.009Z,8.70
2019-02-19T12:45:50.550Z,8.70
2019-02-19T12:48:19.488Z,8.70
2019-02-19T12:50:48.196Z,8.70
2019-02-19T12:53:16.944Z,8.70
2019-02-19T12:55:45.656Z,8.80
2019-02-19T12:58:14.321Z,8.90
2019-02-19T13:00:43.029Z,9.00
2019-02-19T13:03:11.625Z,9.00
2019-02-19T13:05:40.256Z,9.10
2019-02-19T13:08:08.924Z,9.00
2019-02-19T13:10:37.565Z,9.00
2019-02-19T13:13:06.212Z,8.90
2019-02-19T13:15:34.937Z,9.00
2019-02-19T13:18:03.860Z,9.00
2019-02-19T13:20:32.511Z,9.20
2019-02-19T13:23:01.095Z,9.40
2019-02-19T13:25:29.699Z,9.80
2019-02-19T13:27:58.255Z,10.00
2019-02-19T13:30:26.999Z,10.20
2019-02-19T13:32:55.562Z,10.20
2019-02-19T13:35:24.222Z,10.40
2019-02-19T13:37:52.929Z,10.40
2019-02-19T13:40:21.640Z,10.40
2019-02-19T13:42:50.374Z,10.40
2019-02-19T13:45:19.084Z,10.20
2019-02-19T13:47:48.538Z,10.30
2019-02-19T13:50:28.702Z,10.40
2019-02-19T13:53:04.707Z,10.50
2019-02-19T13:55:35.084Z,10.70
2019-02-19T13:58:03.833Z,10.70
2019-02-19T14:00:34.112Z,11.00
2019-02-19T14:03:02.856Z,11.30
2019-02-19T14:05:31.612Z,11.50
2019-02-19T14:08:00.246Z,11.80
2019-02-19T14:10:28.984Z,12.20
2019-02-19T14:12:57.622Z,12.50
2019-02-19T14:15:37.186Z,12.70
2019-02-19T14:18:07.539Z,13.10
2019-02-19T14:20:37.917Z,13.40
2019-02-19T14:23:24.381Z,13.80
2019-02-19T14:25:57.792Z,13.80
2019-02-19T14:28:28.064Z,14.10
2019-02-19T14:34:05.672Z,14.80
2019-02-19T14:36:39.059Z,14.90
2019-02-19T14:39:25.709Z,14.80
2019-02-19T14:41:56.083Z,14.30
2019-02-19T14:44:26.435Z,13.80
2019-02-19T14:47:02.825Z,13.60
2019-02-19T14:49:47.395Z,13.60
2019-02-19T14:52:14.256Z,13.50
2019-02-19T14:55:01.016Z,13.40
2019-02-19T14:57:31.404Z,13.50
2019-02-19T15:00:10.576Z,13.30
2019-02-19T15:02:57.422Z,13.10
2019-02-19T15:05:30.320Z,12.60
2019-02-19T15:08:06.846Z,12.10
2019-02-19T15:10:56.664Z,11.70
2019-02-19T15:13:45.165Z,11.20
2019-02-19T15:16:22.702Z,10.90
2019-02-19T15:19:08.181Z,10.70
2019-02-19T15:21:50.628Z,10.50
2019-02-19T15:24:26.713Z,10.30
2019-02-19T15:27:02.771Z,10.20
2019-02-19T15:29:36.090Z,10.00
2019-02-19T15:32:06.620Z,9.90
2019-02-19T15:34:39.779Z,9.80
2019-02-19T15:37:19.322Z,9.60
2019-02-19T15:39:49.634Z,9.40
2019-02-19T15:45:48.210Z,9.20
2019-02-19T15:48:21.614Z,9.00
2019-02-19T15:54:23.842Z,8.70
2019-02-19T16:16:30.960Z,8.00
2019-02-19T16:19:15.364Z,7.90
2019-02-19T16:21:49.138Z,7.90
2019-02-19T16:24:20.015Z,7.80
2019-02-19T16:27:03.109Z,7.70
2019-02-19T16:29:37.146Z,7.70
2019-02-19T16:32:19.580Z,7.60
2019-02-19T16:34:49.798Z,7.60
2019-02-19T16:37:20.185Z,7.50
2019-02-19T16:39:59.149Z,7.40
2019-02-19T16:42:45.907Z,7.30
2019-02-19T16:46:09.933Z,7.20
2019-02-19T16:48:58.407Z,7.10
2019-02-19T16:51:33.090Z,6.90
2019-02-19T16:54:06.124Z,6.80
2019-02-19T16:56:43.920Z,6.60
2019-02-19T16:59:23.485Z,6.40
2019-02-19T17:01:53.855Z,6.20
2019-02-19T17:04:24.116Z,6.10
2019-02-19T17:07:00.223Z,5.90
2019-02-19T17:09:30.437Z,5.70
2019-02-19T17:12:00.752Z,5.60
2019-02-19T17:14:42.758Z,5.50
2019-02-19T17:17:19.063Z,5.40
2019-02-19T17:19:52.023Z,5.30
2019-02-19T17:22:37.540Z,5.20
2019-02-19T17:25:17.983Z,5.20
2019-02-19T17:28:06.326Z,5.10
2019-02-19T17:30:42.501Z,5.10
2019-02-19T17:33:29.685Z,5.00
2019-02-19T17:36:00.156Z,5.00
2019-02-19T17:38:30.627Z,4.90
2019-02-19T17:41:13.045Z,4.90
2019-02-19T17:43:43.442Z,4.80
2019-02-19T17:46:13.819Z,4.80
2019-02-19T17:49:00.620Z,4.70
2019-02-19T17:51:31.592Z,4.70
2019-02-19T17:54:14.266Z,4.50
2019-02-19T17:56:44.631Z,4.50
2019-02-19T17:59:29.881Z,4.40
2019-02-19T18:02:06.055Z,4.40
2019-02-19T18:04:44.496Z,4.30
2019-02-19T18:07:24.024Z,4.30
2019-02-19T18:09:54.348Z,4.30
2019-02-19T18:12:42.934Z,4.30
2019-02-19T18:15:22.769Z,4.30
2019-02-19T18:17:53.664Z,4.30
2019-02-19T18:20:22.599Z,4.30
2019-02-19T18:22:51.239Z,4.30
2019-02-19T18:25:19.915Z,4.20
2019-02-19T18:27:48.575Z,4.30
2019-02-19T18:30:17.169Z,4.20
2019-02-19T18:32:45.753Z,4.20
2019-02-19T18:35:14.464Z,4.20
2019-02-19T18:37:43.383Z,4.20
2019-02-19T18:40:11.949Z,4.20
2019-02-19T18:42:41.606Z,4.20
2019-02-19T18:45:10.418Z,4.20
2019-02-19T18:47:39.099Z,4.20
2019-02-19T18:50:09.686Z,4.20
2019-02-19T18:52:38.339Z,4.20
2019-02-19T18:55:08.361Z,4.20
2019-02-19T18:57:37.014Z,4.20
2019-02-19T19:00:08.529Z,4.20
2019-02-19T19:02:37.386Z,4.30
2019-02-19T19:05:07.704Z,4.30
2019-02-19T19:07:36.485Z,4.30
2019-02-19T19:10:08.877Z,4.30
2019-02-19T19:12:37.500Z,4.40
2019-02-19T19:15:08.598Z,4.40
2019-02-19T19:17:37.253Z,4.50
2019-02-19T19:20:10.990Z,4.50
2019-02-19T19:22:39.765Z,4.50
2019-02-19T19:25:08.516Z,4.50
2019-02-19T19:27:37.282Z,4.40
2019-02-19T19:30:08.916Z,4.40
2019-02-19T19:32:38.149Z,4.40
2019-02-19T19:35:08.937Z,4.40
2019-02-19T19:37:37.706Z,4.40
2019-02-19T19:40:08.782Z,4.30
2019-02-19T19:42:37.515Z,4.30
2019-02-19T19:45:09.432Z,4.20
2019-02-19T19:47:38.129Z,4.20
2019-02-19T19:50:09.502Z,4.20
2019-02-19T19:52:38.200Z,4.20
2019-02-19T19:55:08.963Z,4.20
2019-02-19T19:57:37.599Z,4.20
2019-02-19T20:00:08.922Z,4.20
2019-02-19T20:02:37.642Z,4.10
2019-02-19T20:05:08.662Z,4.10
2019-02-19T20:07:37.387Z,4.10
2019-02-19T20:10:11.286Z,4.10
2019-02-19T20:12:39.932Z,4.00
2019-02-19T20:15:11.680Z,4.00
2019-02-19T20:17:40.343Z,4.10
2019-02-19T20:20:11.412Z,4.10
2019-02-19T20:22:40.065Z,4.10
2019-02-19T20:25:11.557Z,4.10
2019-02-19T20:27:40.263Z,4.10
2019-02-19T20:30:11.942Z,4.10
2019-02-19T20:32:40.635Z,4.00
2019-02-19T20:35:10.675Z,4.00
2019-02-19T20:37:39.486Z,3.90
2019-02-19T20:40:10.010Z,3.90
2019-02-19T20:42:38.769Z,3.90
2019-02-19T20:45:14.596Z,3.80
2019-02-19T20:47:43.576Z,3.80
2019-02-19T20:50:13.430Z,3.70
2019-02-19T20:52:42.165Z,3.70
2019-02-19T20:55:11.569Z,3.70
2019-02-19T20:57:40.328Z,3.70
2019-02-19T21:00:12.450Z,3.70
2019-02-19T21:02:41.121Z,3.70
2019-02-19T21:05:13.664Z,3.70
2019-02-19T21:07:42.946Z,3.70
2019-02-19T21:10:19.621Z,3.70
2019-02-19T21:12:52.463Z,3.80
2019-02-19T21:15:21.354Z,3.70
2019-02-19T21:17:50.051Z,3.70
2019-02-19T21:20:18.800Z,3.70
2019-02-19T21:22:47.514Z,3.70
2019-02-19T21:25:16.177Z,3.70
2019-02-19T21:27:44.888Z,3.60
2019-02-19T21:30:15.245Z,3.60
2019-02-19T21:32:44.290Z,3.60
2019-02-19T21:35:13.015Z,3.60
2019-02-19T21:37:41.998Z,3.60
2019-02-19T21:40:13.213Z,3.60
2019-02-19T21:42:41.946Z,3.60
2019-02-19T21:45:12.141Z,3.60
2019-02-19T21:47:41.320Z,3.60
2019-02-19T21:50:11.497Z,3.70
2019-02-19T21:52:40.287Z,3.70
2019-02-19T21:55:10.591Z,3.70
2019-02-19T21:57:39.670Z,3.70
2019-02-19T22:00:15.060Z,3.60
2019-02-19T22:02:43.732Z,3.70
2019-02-19T22:05:12.472Z,3.70
2019-02-19T22:07:41.211Z,3.70
2019-02-19T22:10:12.521Z,3.70
2019-02-19T22:12:41.317Z,3.60
2019-02-19T22:15:14.438Z,3.60
2019-02-19T22:17:43.104Z,3.60
2019-02-19T22:20:24.641Z,3.60
2019-02-19T22:22:53.480Z,3.60
2019-02-19T22:25:22.191Z,3.60
2019-02-19T22:27:50.929Z,3.60
2019-02-19T22:30:19.754Z,3.60
2019-02-19T22:32:48.672Z,3.60
2019-02-19T22:35:17.304Z,3.50
2019-02-19T22:37:46.038Z,3.50
2019-02-19T22:40:16.163Z,3.50
2019-02-19T22:42:45.247Z,3.50
2019-02-19T22:45:14.650Z,3.50
2019-02-19T22:47:43.935Z,3.40
2019-02-19T22:50:12.758Z,3.40
2019-02-19T22:52:41.399Z,3.40
2019-02-19T22:55:21.331Z,3.30
2019-02-19T22:57:50.145Z,3.30
2019-02-19T23:00:39.460Z,3.30
2019-02-19T23:03:08.392Z,3.20
2019-02-19T23:05:37.309Z,3.20
2019-02-19T23:08:06.020Z,3.20
2019-02-19T23:10:34.785Z,3.10
2019-02-19T23:13:04.117Z,3.10
2019-02-19T23:15:32.838Z,3.10
2019-02-19T23:18:01.502Z,3.20
2019-02-19T23:20:30.207Z,3.20
2019-02-19T23:22:59.154Z,3.10
2019-02-19T23:25:27.858Z,3.10
2019-02-19T23:27:56.624Z,3.20
2019-02-19T23:30:25.260Z,3.10
2019-02-19T23:32:53.853Z,3.00
2019-02-19T23:35:27.202Z,3.00
2019-02-19T23:37:55.952Z,3.00
2019-02-19T23:40:24.511Z,3.00
2019-02-19T23:42:53.146Z,3.00
2019-02-19T23:45:21.883Z,3.00
2019-02-19T23:47:50.521Z,2.90
2019-02-19T23:50:19.187Z,2.90
2019-02-19T23:52:47.784Z,2.80
2019-02-19T23:55:16.491Z,2.70
2019-02-19T23:57:45.159Z,2.70
